Wind From: 11-12-2017 12:03 Until: 12-12-2017 06:00 warning for: Wind Level: Orange info button

Power and phone distribution networks may be disrupted for relatively long periods., Roofs and chimneys can be damaged. , Tree branches may break. , Vehicles can be deported. , Traffic may be disrupted, particularly on secondary roads in forest areas. Limit your trips. , Limit your speed in highway driving, especially if you drive a vehicle or hitch sensitive to wind. , Do not go for walks in forests or along the coast., In town, be vigilant against possible falling objects., Do not work on roofs and do not touch any electrical line fallen on the ground., Store or secure sensitive objects to wind or likely to be damaged., Always install power generators outside buildings. 


Meteo18 Weather Cam more information Meteo18 Weather Cam


Thunder radar more information blitzortung!


Rain radar more information rain snow radar


Visit our other weather sites:

Template documentation
and downloads

And another site



Weather Underground History page Text

Daily Summary for August 20, 2016 Units:  Metric    English   Both
« Previous Day
Next Day »
Daily Weekly Monthly Yearly Custom
  High: Low: Average:
Temperature: 24.1 °C 14.8 °C 19.4 °C
Dew Point: 15.8 °C 9.9 °C 13.2 °C
Humidity: 94 % 44 % 70 %
Wind Speed: 27.4 km/h 0.0 km/h 7.1 km/h
Wind Gust: 33.8 km/h - -
Wind:- - WSW
Pressure: 1018.8 hPa 1012.1 hPa -
Precipitation: 2.8 mm    
Historical Graphs
 
 
Tabular Data for August 20, 2016
Time Temperature Dew Point Pressure Wind Wind Speed Wind Gust Humidity Rainfall Rate (Hourly)
00:02 20.1 °C 14.7 °C 1012.4 hPa Calm     71 % 0.0 mm
00:12 20.0 °C 14.6 °C 1012.1 hPa Calm     71 % 0.0 mm
00:17 20.0 °C 14.6 °C 1012.4 hPa Calm     71 % 0.0 mm
00:22 20.0 °C 14.6 °C 1012.4 hPa Calm     71 % 0.0 mm
00:27 20.0 °C 14.6 °C 1012.4 hPa Calm     71 % 0.0 mm
00:32 19.9 °C 14.5 °C 1012.4 hPa Calm   4.8 km/h 71 % 0.0 mm
00:42 19.9 °C 14.5 °C 1012.8 hPa Calm     71 % 0.0 mm
00:47 19.8 °C 14.4 °C 1012.8 hPa Calm     71 % 0.0 mm
00:52 19.8 °C 14.4 °C 1012.8 hPa Calm     71 % 0.0 mm
00:57 19.8 °C 14.4 °C 1012.8 hPa Calm   4.8 km/h 71 % 0.0 mm
01:02 19.8 °C 14.4 °C 1012.8 hPa WNW 1.6 km/h 4.8 km/h 71 % 0.0 mm
01:07 19.7 °C 14.3 °C 1012.8 hPa WNW 4.8 km/h 6.4 km/h 71 % 0.0 mm
01:12 19.7 °C 14.3 °C 1012.8 hPa NW 3.2 km/h 6.4 km/h 71 % 0.0 mm
01:17 19.7 °C 14.3 °C 1012.8 hPa WNW 1.6 km/h 8.0 km/h 71 % 0.0 mm
01:22 19.6 °C 14.4 °C 1012.8 hPa West 1.6 km/h 8.0 km/h 72 % 0.0 mm
01:27 19.4 °C 14.4 °C 1012.8 hPa West 1.6 km/h 8.0 km/h 73 % 0.0 mm
01:32 19.3 °C 14.3 °C 1012.8 hPa WNW 4.8 km/h 6.4 km/h 73 % 0.0 mm
01:37 19.3 °C 14.5 °C 1012.8 hPa WNW 3.2 km/h 6.4 km/h 74 % 0.0 mm
01:42 19.2 °C 14.7 °C 1012.8 hPa Calm   6.4 km/h 75 % 0.0 mm
01:47 19.2 °C 14.7 °C 1012.8 hPa West 3.2 km/h 6.4 km/h 75 % 0.0 mm
01:52 19.2 °C 14.7 °C 1012.8 hPa Calm   6.4 km/h 75 % 0.0 mm
01:57 19.2 °C 14.7 °C 1012.8 hPa WSW 1.6 km/h 6.4 km/h 75 % 0.0 mm
02:02 19.1 °C 14.6 °C 1012.8 hPa WSW 1.6 km/h 6.4 km/h 75 % 0.0 mm
02:07 19.1 °C 14.8 °C 1012.8 hPa Calm   3.2 km/h 76 % 0.0 mm
02:12 19.1 °C 14.8 °C 1012.8 hPa WSW 1.6 km/h 1.6 km/h 76 % 0.0 mm
02:17 19.1 °C 15.0 °C 1012.8 hPa SW 3.2 km/h 3.2 km/h 77 % 0.0 mm
02:22 19.1 °C 15.2 °C 1012.8 hPa Calm   8.0 km/h 78 % 0.0 mm
02:32 19.1 °C 15.4 °C 1012.8 hPa SW 4.8 km/h 8.0 km/h 79 % 0.0 mm
02:37 19.0 °C 15.5 °C 1012.8 hPa SW 8.0 km/h 8.0 km/h 80 % 0.0 mm
02:42 18.9 °C 15.4 °C 1012.8 hPa WSW 3.2 km/h 11.3 km/h 80 % 0.0 mm
02:52 18.7 °C 15.4 °C 1012.8 hPa WSW 3.2 km/h 11.3 km/h 81 % 0.0 mm
03:07 18.3 °C 15.2 °C 1012.8 hPa West 3.2 km/h 6.4 km/h 82 % 0.0 mm
03:12 18.3 °C 15.2 °C 1012.8 hPa WSW 1.6 km/h 6.4 km/h 82 % 0.0 mm
03:17 18.2 °C 15.3 °C 1012.8 hPa Calm   6.4 km/h 83 % 0.0 mm
03:22 18.1 °C 15.2 °C 1012.8 hPa WSW 3.2 km/h 6.4 km/h 83 % 0.0 mm
03:27 18.1 °C 15.2 °C 1012.8 hPa WSW 1.6 km/h 6.4 km/h 83 % 0.0 mm
03:32 18.1 °C 15.4 °C 1012.8 hPa WSW 3.2 km/h 6.4 km/h 84 % 0.0 mm
03:37 18.1 °C 15.5 °C 1012.8 hPa West 1.6 km/h 8.0 km/h 85 % 0.0 mm
03:42 18.1 °C 15.5 °C 1012.8 hPa West 3.2 km/h 9.7 km/h 85 % 0.0 mm
03:47 18.1 °C 15.5 °C 1013.1 hPa West 4.8 km/h 11.3 km/h 85 % 0.0 mm
03:52 18.1 °C 15.7 °C 1013.1 hPa West 1.6 km/h 11.3 km/h 86 % 0.0 mm
03:57 18.1 °C 15.7 °C 1013.1 hPa West 1.6 km/h 11.3 km/h 86 % 0.0 mm
04:02 18.2 °C 15.8 °C 1013.4 hPa WSW 9.7 km/h 11.3 km/h 86 % 0.0 mm
04:17 18.4 °C 15.8 °C 1013.1 hPa SW 6.4 km/h 11.3 km/h 85 % 0.0 mm
04:22 18.4 °C 15.8 °C 1013.1 hPa West 8.0 km/h 12.9 km/h 85 % 0.0 mm
04:27 18.3 °C 15.7 °C 1013.1 hPa WSW 1.6 km/h 12.9 km/h 85 % 0.0 mm
04:32 18.3 °C 15.7 °C 1013.1 hPa WNW 6.4 km/h 12.9 km/h 85 % 0.0 mm
04:37 18.2 °C 15.8 °C 1013.1 hPa West 3.2 km/h 14.5 km/h 86 % 0.0 mm
04:42 18.1 °C 15.7 °C 1013.1 hPa WSW 3.2 km/h 11.3 km/h 86 % 0.0 mm
04:47 17.9 °C 15.5 °C 1013.1 hPa WNW 3.2 km/h 9.7 km/h 86 % 0.0 mm
04:52 17.7 °C 15.1 °C 1013.1 hPa NW 3.2 km/h 9.7 km/h 85 % 0.0 mm
05:02 17.2 °C 13.7 °C 1013.1 hPa West 4.8 km/h 12.9 km/h 80 % 0.0 mm
05:12 16.8 °C 13.3 °C 1013.1 hPa West 1.6 km/h 17.7 km/h 80 % 0.3 mm
05:17 16.6 °C 13.3 °C 1013.1 hPa WSW 1.6 km/h 17.7 km/h 81 % 0.3 mm
05:22 16.5 °C 13.4 °C 1012.8 hPa Calm   17.7 km/h 82 % 0.3 mm
05:32 16.3 °C 13.6 °C 1012.8 hPa WNW 1.6 km/h 6.4 km/h 84 % 0.3 mm
05:42 16.1 °C 13.8 °C 1012.8 hPa Calm   4.8 km/h 86 % 0.3 mm
05:52 15.8 °C 13.6 °C 1012.8 hPa Calm   1.6 km/h 87 % 0.3 mm
05:57 15.8 °C 13.8 °C 1012.8 hPa Calm   1.6 km/h 88 % 0.3 mm
06:02 15.7 °C 13.7 °C 1013.1 hPa WSW 1.6 km/h 1.6 km/h 88 % 0.3 mm
06:12 15.6 °C 14.0 °C 1013.4 hPa WSW 1.6 km/h 3.2 km/h 90 % 0.0 mm
06:17 15.6 °C 14.1 °C 1013.8 hPa WSW 1.6 km/h 3.2 km/h 91 % 0.0 mm
06:22 15.8 °C 14.3 °C 1013.8 hPa WSW 9.7 km/h 9.7 km/h 91 % 0.0 mm
06:32 16.2 °C 14.7 °C 1013.4 hPa SW 1.6 km/h 9.7 km/h 91 % 0.0 mm
06:42 16.3 °C 14.8 °C 1013.4 hPa SSW 1.6 km/h 9.7 km/h 91 % 0.0 mm
06:47 16.4 °C 14.9 °C 1013.8 hPa SSW 4.8 km/h 4.8 km/h 91 % 0.3 mm
06:52 16.2 °C 14.7 °C 1013.8 hPa SW 3.2 km/h 4.8 km/h 91 % 0.3 mm
07:02 15.9 °C 14.4 °C 1013.8 hPa SW 3.2 km/h 6.4 km/h 91 % 0.3 mm
07:12 15.8 °C 14.5 °C 1013.8 hPa Calm   6.4 km/h 92 % 0.3 mm
07:17 15.8 °C 14.5 °C 1013.8 hPa SSW 3.2 km/h 6.4 km/h 92 % 0.3 mm
07:22 15.8 °C 14.5 °C 1013.8 hPa SSW 1.6 km/h 6.4 km/h 92 % 0.3 mm
07:32 15.8 °C 14.7 °C 1013.8 hPa SSW 1.6 km/h 3.2 km/h 93 % 0.5 mm
07:42 15.9 °C 14.9 °C 1013.8 hPa SW 6.4 km/h 6.4 km/h 94 % 0.3 mm
07:52 16.2 °C 15.2 °C 1014.1 hPa WSW 6.4 km/h 6.4 km/h 94 % 0.3 mm
08:02 16.3 °C 15.3 °C 1014.4 hPa SSW 4.8 km/h 8.0 km/h 94 % 0.3 mm
08:12 16.2 °C 15.2 °C 1014.4 hPa SSW 3.2 km/h 14.5 km/h 94 % 0.5 mm
08:22 16.2 °C 15.2 °C 1014.4 hPa SSW 3.2 km/h 12.9 km/h 94 % 0.8 mm
08:32 15.3 °C 12.8 °C 1014.4 hPa SSW 9.7 km/h 9.7 km/h 85 % 1.0 mm
08:42 15.0 °C 12.5 °C 1014.4 hPa SSW 4.8 km/h 16.1 km/h 85 % 1.3 mm
08:52 14.8 °C 12.5 °C 1014.8 hPa SSW 4.8 km/h 12.9 km/h 86 % 1.3 mm
09:02 14.8 °C 12.8 °C 1014.8 hPa SW 4.8 km/h 9.7 km/h 88 % 1.3 mm
09:12 14.8 °C 13.0 °C 1014.8 hPa SW 6.4 km/h 8.0 km/h 89 % 0.8 mm
09:17 14.8 °C 13.0 °C 1015.1 hPa SW 4.8 km/h 8.0 km/h 89 % 0.8 mm
09:22 14.8 °C 13.2 °C 1015.1 hPa SSW 4.8 km/h 8.0 km/h 90 % 0.8 mm
09:32 14.8 °C 13.2 °C 1015.1 hPa SSW 3.2 km/h 8.0 km/h 90 % 0.8 mm
09:42 15.0 °C 13.4 °C 1015.1 hPa South 3.2 km/h 9.7 km/h 90 % 1.0 mm
09:52 15.3 °C 13.8 °C 1015.1 hPa SW 8.0 km/h 9.7 km/h 91 % 1.0 mm
10:02 15.4 °C 13.9 °C 1015.5 hPa SW 4.8 km/h 9.7 km/h 91 % 1.0 mm
10:12 15.5 °C 13.9 °C 1015.5 hPa SW 11.3 km/h 16.1 km/h 90 % 1.0 mm
10:22 15.5 °C 13.7 °C 1015.5 hPa SW 11.3 km/h 17.7 km/h 89 % 0.5 mm
10:32 15.7 °C 14.1 °C 1015.5 hPa SW 4.8 km/h 17.7 km/h 90 % 0.3 mm
10:42 15.9 °C 13.9 °C 1015.5 hPa SW 11.3 km/h 14.5 km/h 88 % 0.0 mm
10:52 16.4 °C 13.7 °C 1015.5 hPa SW 19.3 km/h 22.5 km/h 84 % 0.0 mm
10:57 16.5 °C 13.6 °C 1015.5 hPa South 8.0 km/h 22.5 km/h 83 % 0.0 mm
11:02 16.7 °C 14.0 °C 1015.8 hPa SSW 16.1 km/h 22.5 km/h 84 % 0.0 mm
11:12 17.1 °C 14.2 °C 1015.8 hPa SW 9.7 km/h 24.1 km/h 83 % 0.0 mm
11:17 17.2 °C 14.3 °C 1015.8 hPa SSW 4.8 km/h 24.1 km/h 83 % 0.0 mm
11:22 17.4 °C 14.3 °C 1015.8 hPa SSW 12.9 km/h 20.9 km/h 82 % 0.0 mm
11:32 17.7 °C 14.6 °C 1015.5 hPa SSW 14.5 km/h 22.5 km/h 82 % 0.0 mm
11:37 17.8 °C 14.7 °C 1015.5 hPa SSW 6.4 km/h 22.5 km/h 82 % 0.0 mm
11:42 17.8 °C 14.5 °C 1015.5 hPa WSW 8.0 km/h 19.3 km/h 81 % 0.0 mm
11:47 18.1 °C 14.6 °C 1015.8 hPa SW 12.9 km/h 25.7 km/h 80 % 0.0 mm
11:52 18.2 °C 14.7 °C 1015.5 hPa SSW 6.4 km/h 25.7 km/h 80 % 0.0 mm
11:57 18.4 °C 14.9 °C 1015.5 hPa SSW 6.4 km/h 19.3 km/h 80 % 0.0 mm
12:02 18.6 °C 15.1 °C 1015.5 hPa South 6.4 km/h 19.3 km/h 80 % 0.0 mm
12:07 18.8 °C 15.3 °C 1015.5 hPa SW 17.7 km/h 20.9 km/h 80 % 0.0 mm
12:12 18.8 °C 15.3 °C 1015.8 hPa WSW 20.9 km/h 25.7 km/h 80 % 0.0 mm
12:17 19.0 °C 14.9 °C 1015.8 hPa SSW 14.5 km/h 25.7 km/h 77 % 0.0 mm
12:22 19.0 °C 15.1 °C 1015.8 hPa SW 6.4 km/h 25.7 km/h 78 % 0.0 mm
12:32 19.3 °C 15.2 °C 1015.8 hPa South 8.0 km/h 25.7 km/h 77 % 0.0 mm
12:37 19.6 °C 14.8 °C 1015.8 hPa SW 14.5 km/h 25.7 km/h 74 % 0.0 mm
12:47 19.9 °C 14.9 °C 1015.8 hPa SSW 12.9 km/h 22.5 km/h 73 % 0.0 mm
12:52 20.1 °C 14.7 °C 1015.8 hPa South 9.7 km/h 19.3 km/h 71 % 0.0 mm
12:57 20.1 °C 14.5 °C 1015.5 hPa SW 14.5 km/h 29.0 km/h 70 % 0.0 mm
13:02 20.1 °C 15.1 °C 1015.5 hPa SSW 16.1 km/h 29.0 km/h 73 % 0.0 mm
13:12 20.4 °C 14.5 °C 1015.8 hPa SSW 9.7 km/h 24.1 km/h 69 % 0.0 mm
13:22 20.3 °C 14.6 °C 1015.5 hPa WSW 11.3 km/h 27.4 km/h 70 % 0.0 mm
13:32 20.3 °C 14.2 °C 1015.5 hPa SW 16.1 km/h 22.5 km/h 68 % 0.0 mm
13:42 20.5 °C 13.9 °C 1015.5 hPa SW 9.7 km/h 20.9 km/h 66 % 0.0 mm
13:52 21.1 °C 14.5 °C 1015.5 hPa SSW 14.5 km/h 22.5 km/h 66 % 0.0 mm
13:57 20.9 °C 13.8 °C 1015.5 hPa SSW 11.3 km/h 22.5 km/h 64 % 0.0 mm
14:07 20.7 °C 13.9 °C 1015.5 hPa SW 12.9 km/h 24.1 km/h 65 % 0.0 mm
14:12 20.6 °C 13.8 °C 1015.5 hPa SW 9.7 km/h 24.1 km/h 65 % 0.0 mm
14:17 20.7 °C 14.4 °C 1015.5 hPa SW 16.1 km/h 24.1 km/h 67 % 0.0 mm
14:22 20.8 °C 14.4 °C 1015.5 hPa SSW 9.7 km/h 24.1 km/h 67 % 0.0 mm
14:37 20.9 °C 14.3 °C 1015.5 hPa South 4.8 km/h 20.9 km/h 66 % 0.0 mm
14:42 20.8 °C 13.7 °C 1015.5 hPa SSW 19.3 km/h 19.3 km/h 64 % 0.0 mm
14:47 20.7 °C 13.9 °C 1015.5 hPa WSW 9.7 km/h 22.5 km/h 65 % 0.0 mm
14:52 20.7 °C 14.1 °C 1015.5 hPa SSW 8.0 km/h 22.5 km/h 66 % 0.0 mm
14:57 20.8 °C 14.2 °C 1015.5 hPa WNW 19.3 km/h 25.7 km/h 66 % 0.0 mm
15:02 19.7 °C 14.7 °C 1015.8 hPa West 8.0 km/h 25.7 km/h 73 % 0.0 mm
15:07 19.3 °C 14.8 °C 1015.5 hPa West 3.2 km/h 25.7 km/h 75 % 0.0 mm
15:12 19.3 °C 15.0 °C 1015.8 hPa SW 3.2 km/h 25.7 km/h 76 % 0.0 mm
15:17 19.7 °C 14.9 °C 1015.5 hPa SW 4.8 km/h 19.3 km/h 74 % 0.0 mm
15:22 20.3 °C 14.9 °C 1015.5 hPa SW 9.7 km/h 19.3 km/h 71 % 0.0 mm
15:32 21.3 °C 14.5 °C 1015.5 hPa SW 12.9 km/h 16.1 km/h 65 % 0.0 mm
15:42 22.1 °C 13.2 °C 1015.5 hPa SW 6.4 km/h 22.5 km/h 57 % 0.0 mm
15:47 22.3 °C 13.4 °C 1015.5 hPa West 9.7 km/h 22.5 km/h 57 % 0.0 mm
15:52 22.4 °C 13.5 °C 1015.1 hPa SW 11.3 km/h 20.9 km/h 57 % 0.0 mm
15:57 22.4 °C 13.5 °C 1015.5 hPa SW 9.7 km/h 29.0 km/h 57 % 0.0 mm
16:02 22.6 °C 14.2 °C 1015.1 hPa SSW 8.0 km/h 29.0 km/h 59 % 0.0 mm
16:12 22.9 °C 13.1 °C 1015.5 hPa SW 8.0 km/h 25.7 km/h 54 % 0.0 mm
16:17 23.2 °C 12.8 °C 1015.5 hPa SW 20.9 km/h 25.7 km/h 52 % 0.0 mm
16:22 23.3 °C 12.6 °C 1015.1 hPa West 8.0 km/h 25.7 km/h 51 % 0.0 mm
16:27 23.3 °C 12.9 °C 1015.1 hPa WSW 8.0 km/h 29.0 km/h 52 % 0.0 mm
16:32 23.7 °C 13.0 °C 1015.1 hPa SW 6.4 km/h 29.0 km/h 51 % 0.0 mm
16:42 23.4 °C 10.8 °C 1015.1 hPa WSW 27.4 km/h 27.4 km/h 45 % 0.0 mm
16:47 23.3 °C 10.4 °C 1015.1 hPa WSW 19.3 km/h 27.4 km/h 44 % 0.0 mm
16:52 23.3 °C 10.4 °C 1015.1 hPa West 9.7 km/h 27.4 km/h 44 % 0.0 mm
17:02 23.8 °C 11.2 °C 1015.1 hPa WSW 9.7 km/h 27.4 km/h 45 % 0.0 mm
17:12 23.3 °C 10.7 °C 1015.1 hPa SW 12.9 km/h 22.5 km/h 45 % 0.0 mm
17:17 23.2 °C 10.9 °C 1015.1 hPa West 12.9 km/h 22.5 km/h 46 % 0.0 mm
17:22 22.9 °C 11.0 °C 1015.5 hPa WSW 11.3 km/h 22.5 km/h 47 % 0.0 mm
17:32 23.1 °C 11.2 °C 1015.5 hPa WSW 6.4 km/h 24.1 km/h 47 % 0.0 mm
17:42 23.6 °C 11.9 °C 1015.5 hPa WNW 8.0 km/h 19.3 km/h 48 % 0.0 mm
17:47 23.8 °C 11.5 °C 1015.5 hPa WNW 14.5 km/h 19.3 km/h 46 % 0.0 mm
17:52 23.9 °C 11.6 °C 1015.1 hPa West 9.7 km/h 19.3 km/h 46 % 0.0 mm
17:57 23.8 °C 11.2 °C 1015.5 hPa SW 14.5 km/h 22.5 km/h 45 % 0.0 mm
18:02 23.9 °C 11.2 °C 1015.5 hPa SW 9.7 km/h 22.5 km/h 45 % 0.0 mm
18:12 23.8 °C 11.2 °C 1015.5 hPa SW 9.7 km/h 22.5 km/h 45 % 0.0 mm
18:17 23.8 °C 10.8 °C 1015.5 hPa SW 9.7 km/h 25.7 km/h 44 % 0.0 mm
18:22 24.0 °C 11.0 °C 1015.5 hPa South 8.0 km/h 25.7 km/h 44 % 0.0 mm
18:32 24.1 °C 11.1 °C 1015.5 hPa WSW 17.7 km/h 30.6 km/h 44 % 0.0 mm
18:37 23.8 °C 10.8 °C 1015.5 hPa WSW 11.3 km/h 30.6 km/h 44 % 0.0 mm
18:42 23.7 °C 10.7 °C 1015.5 hPa WSW 8.0 km/h 30.6 km/h 44 % 0.0 mm
18:47 23.9 °C 10.9 °C 1015.5 hPa WSW 19.3 km/h 29.0 km/h 44 % 0.0 mm
18:52 23.9 °C 10.9 °C 1015.5 hPa SW 19.3 km/h 27.4 km/h 44 % 0.0 mm
19:02 23.4 °C 10.5 °C 1015.8 hPa South 20.9 km/h 33.8 km/h 44 % 0.0 mm
19:12 22.9 °C 10.7 °C 1015.8 hPa WSW 11.3 km/h 33.8 km/h 46 % 0.0 mm
19:17 23.1 °C 10.8 °C 1015.8 hPa WSW 6.4 km/h 32.2 km/h 46 % 0.0 mm
19:22 23.2 °C 10.9 °C 1015.8 hPa SW 11.3 km/h 29.0 km/h 46 % 0.0 mm
19:32 23.3 °C 11.0 °C 1016.1 hPa WSW 12.9 km/h 29.0 km/h 46 % 0.0 mm
19:42 23.1 °C 10.5 °C 1016.1 hPa WNW 24.1 km/h 24.1 km/h 45 % 0.0 mm
19:47 22.9 °C 10.7 °C 1016.1 hPa West 14.5 km/h 25.7 km/h 46 % 0.0 mm
19:52 22.8 °C 10.6 °C 1016.1 hPa WSW 11.3 km/h 25.7 km/h 46 % 0.0 mm
19:57 22.6 °C 10.7 °C 1016.1 hPa SW 9.7 km/h 25.7 km/h 47 % 0.0 mm
20:02 22.6 °C 11.0 °C 1016.1 hPa WSW 8.0 km/h 25.7 km/h 48 % 0.0 mm
20:07 22.4 °C 11.2 °C 1016.1 hPa WNW 9.7 km/h 25.7 km/h 49 % 0.0 mm
20:12 22.2 °C 11.3 °C 1016.1 hPa West 8.0 km/h 25.7 km/h 50 % 0.0 mm
20:17 22.0 °C 11.4 °C 1016.5 hPa West 4.8 km/h 20.9 km/h 51 % 0.0 mm
20:22 21.9 °C 11.3 °C 1016.5 hPa WSW 8.0 km/h 20.9 km/h 51 % 0.0 mm
20:27 21.7 °C 11.4 °C 1016.5 hPa WSW 3.2 km/h 16.1 km/h 52 % 0.0 mm
20:32 21.5 °C 11.5 °C 1016.5 hPa West 3.2 km/h 16.1 km/h 53 % 0.0 mm
20:42 21.1 °C 11.4 °C 1016.8 hPa West 11.3 km/h 12.9 km/h 54 % 0.0 mm
20:47 21.0 °C 11.3 °C 1016.8 hPa WSW 6.4 km/h 17.7 km/h 54 % 0.0 mm
20:52 20.9 °C 11.0 °C 1016.8 hPa WSW 6.4 km/h 19.3 km/h 53 % 0.0 mm
21:02 20.6 °C 11.0 °C 1016.8 hPa WSW 6.4 km/h 19.3 km/h 54 % 0.0 mm
21:12 20.3 °C 10.4 °C 1016.8 hPa SW 6.4 km/h 16.1 km/h 53 % 0.0 mm
21:17 20.2 °C 10.3 °C 1017.2 hPa West 4.8 km/h 14.5 km/h 53 % 0.0 mm
21:22 20.1 °C 10.5 °C 1017.2 hPa West 4.8 km/h 14.5 km/h 54 % 0.0 mm
21:27 19.9 °C 10.3 °C 1017.2 hPa WSW 6.4 km/h 16.1 km/h 54 % 0.0 mm
21:32 19.8 °C 10.5 °C 1017.2 hPa SW 4.8 km/h 16.1 km/h 55 % 0.0 mm
21:42 19.7 °C 10.4 °C 1017.5 hPa South 3.2 km/h 14.5 km/h 55 % 0.0 mm
21:47 19.7 °C 10.4 °C 1017.5 hPa WSW 9.7 km/h 14.5 km/h 55 % 0.0 mm
21:52 19.6 °C 10.3 °C 1017.5 hPa SW 8.0 km/h 14.5 km/h 55 % 0.0 mm
22:02 19.4 °C 10.4 °C 1017.8 hPa WSW 11.3 km/h 16.1 km/h 56 % 0.0 mm
22:12 19.1 °C 10.1 °C 1017.8 hPa West 11.3 km/h 16.1 km/h 56 % 0.0 mm
22:17 18.9 °C 10.2 °C 1018.2 hPa West 3.2 km/h 16.1 km/h 57 % 0.0 mm
22:22 18.8 °C 10.1 °C 1018.2 hPa WSW 6.4 km/h 16.1 km/h 57 % 0.0 mm
22:32 18.5 °C 10.1 °C 1018.2 hPa West 6.4 km/h 16.1 km/h 58 % 0.0 mm
22:37 18.4 °C 10.0 °C 1018.2 hPa WSW 11.3 km/h 12.9 km/h 58 % 0.0 mm
22:42 18.5 °C 10.1 °C 1018.5 hPa WSW 6.4 km/h 16.1 km/h 58 % 0.0 mm
22:52 18.4 °C 10.2 °C 1018.5 hPa SW 4.8 km/h 16.1 km/h 59 % 0.0 mm
22:57 18.3 °C 10.1 °C 1018.5 hPa SW 6.4 km/h 14.5 km/h 59 % 0.0 mm
23:02 18.3 °C 10.1 °C 1018.5 hPa West 6.4 km/h 14.5 km/h 59 % 0.0 mm
23:07 18.3 °C 10.1 °C 1018.5 hPa SW 6.4 km/h 16.1 km/h 59 % 0.0 mm
23:12 18.2 °C 10.3 °C 1018.8 hPa SW 6.4 km/h 16.1 km/h 60 % 0.0 mm
23:17 18.1 °C 10.2 °C 1018.8 hPa WSW 4.8 km/h 17.7 km/h 60 % 0.0 mm
23:22 17.9 °C 10.0 °C 1018.8 hPa WSW 8.0 km/h 17.7 km/h 60 % 0.0 mm
23:32 17.9 °C 10.0 °C 1018.8 hPa SW 9.7 km/h 17.7 km/h 60 % 0.0 mm
23:37 17.8 °C 9.9 °C 1018.8 hPa WSW 8.0 km/h 17.7 km/h 60 % 0.0 mm
23:42 17.8 °C 9.9 °C 1018.8 hPa West 3.2 km/h 16.1 km/h 60 % 0.0 mm
23:47 17.7 °C 10.1 °C 1018.8 hPa SSW 3.2 km/h 16.1 km/h 61 % 0.0 mm
23:52 17.6 °C 10.0 °C 1018.8 hPa West 4.8 km/h 16.1 km/h 61 % 0.0 mm
Meteo18
Compliments of Weather Underground - 4 mb

Script developed by  Jim McMurry - jmcmurry@mwt.net Adapted for the template by  Wim van der Kuil - Leuven-Template.eu

You find our weather info also at:

European Weather Network

Weather Underground

Equipment we use:

Weather-station
Davis Vue

Weather-program
Meteohub

Weather-server
Raspberry PI 2 B+

Provider
1 and 1

Davis Vue

Meteohub

Raspberry PI 2 B+

1 and 1